sensor_id;sensor_type;location;lat;lon;timestamp;P1;durP1;ratioP1;P2;durP2;ratioP2
17953;SDS011;9102;53.548;9.926;2023-04-25T00:00:55;10.80;;;6.03;;
17953;SDS011;9102;53.548;9.926;2023-04-25T00:03:22;12.70;;;5.05;;
17953;SDS011;9102;53.548;9.926;2023-04-25T00:05:50;12.77;;;5.18;;
17953;SDS011;9102;53.548;9.926;2023-04-25T00:08:17;14.10;;;4.63;;
17953;SDS011;9102;53.548;9.926;2023-04-25T00:10:44;25.02;;;4.82;;
17953;SDS011;9102;53.548;9.926;2023-04-25T00:13:11;22.20;;;4.97;;
17953;SDS011;9102;53.548;9.926;2023-04-25T00:15:39;24.15;;;4.78;;
17953;SDS011;9102;53.548;9.926;2023-04-25T00:18:07;22.67;;;5.13;;
17953;SDS011;9102;53.548;9.926;2023-04-25T00:20:34;22.38;;;5.07;;
17953;SDS011;9102;53.548;9.926;2023-04-25T00:23:01;25.17;;;5.40;;
17953;SDS011;9102;53.548;9.926;2023-04-25T00:25:28;24.42;;;5.18;;
17953;SDS011;9102;53.548;9.926;2023-04-25T00:27:55;21.58;;;5.78;;
17953;SDS011;9102;53.548;9.926;2023-04-25T00:30:22;29.13;;;5.88;;
17953;SDS011;9102;53.548;9.926;2023-04-25T00:32:50;32.80;;;5.72;;
17953;SDS011;9102;53.548;9.926;2023-04-25T00:35:17;33.35;;;5.65;;
17953;SDS011;9102;53.548;9.926;2023-04-25T00:37:44;32.17;;;6.03;;
17953;SDS011;9102;53.548;9.926;2023-04-25T00:40:11;32.80;;;6.05;;
17953;SDS011;9102;53.548;9.926;2023-04-25T00:42:37;36.38;;;5.45;;
17953;SDS011;9102;53.548;9.926;2023-04-25T00:45:05;32.95;;;6.00;;
17953;SDS011;9102;53.548;9.926;2023-04-25T00:47:34;31.85;;;7.28;;
17953;SDS011;9102;53.548;9.926;2023-04-25T00:50:04;19.48;;;4.55;;
17953;SDS011;9102;53.548;9.926;2023-04-25T00:52:31;30.08;;;5.78;;
17953;SDS011;9102;53.548;9.926;2023-04-25T00:54:58;30.85;;;5.82;;
17953;SDS011;9102;53.548;9.926;2023-04-25T00:57:26;31.17;;;5.93;;
17953;SDS011;9102;53.548;9.926;2023-04-25T00:59:53;32.85;;;5.43;;
17953;SDS011;9102;53.548;9.926;2023-04-25T01:02:21;31.98;;;5.43;;
17953;SDS011;9102;53.548;9.926;2023-04-25T01:04:48;30.38;;;5.53;;
17953;SDS011;9102;53.548;9.926;2023-04-25T01:07:16;38.15;;;6.70;;
17953;SDS011;9102;53.548;9.926;2023-04-25T01:09:43;33.38;;;6.18;;
17953;SDS011;9102;53.548;9.926;2023-04-25T01:12:10;26.20;;;5.38;;
17953;SDS011;9102;53.548;9.926;2023-04-25T01:14:37;23.23;;;5.18;;
17953;SDS011;9102;53.548;9.926;2023-04-25T01:17:05;25.60;;;5.05;;
17953;SDS011;9102;53.548;9.926;2023-04-25T01:19:32;30.52;;;5.70;;
17953;SDS011;9102;53.548;9.926;2023-04-25T01:22:01;33.83;;;4.78;;
17953;SDS011;9102;53.548;9.926;2023-04-25T01:24:28;28.50;;;5.32;;
17953;SDS011;9102;53.548;9.926;2023-04-25T01:26:55;28.77;;;5.13;;
17953;SDS011;9102;53.548;9.926;2023-04-25T01:29:23;30.75;;;5.63;;
17953;SDS011;9102;53.548;9.926;2023-04-25T01:31:50;34.15;;;4.82;;
17953;SDS011;9102;53.548;9.926;2023-04-25T01:34:18;30.63;;;4.90;;
17953;SDS011;9102;53.548;9.926;2023-04-25T01:36:45;31.33;;;5.00;;
17953;SDS011;9102;53.548;9.926;2023-04-25T01:39:14;28.98;;;4.72;;
17953;SDS011;9102;53.548;9.926;2023-04-25T01:41:41;30.63;;;5.45;;
17953;SDS011;9102;53.548;9.926;2023-04-25T01:44:08;32.38;;;5.50;;
17953;SDS011;9102;53.548;9.926;2023-04-25T01:46:35;28.25;;;5.43;;
17953;SDS011;9102;53.548;9.926;2023-04-25T01:49:02;23.35;;;4.82;;
17953;SDS011;9102;53.548;9.926;2023-04-25T01:51:29;25.30;;;5.18;;
17953;SDS011;9102;53.548;9.926;2023-04-25T01:53:56;22.17;;;4.88;;
17953;SDS011;9102;53.548;9.926;2023-04-25T01:56:25;21.27;;;4.85;;
17953;SDS011;9102;53.548;9.926;2023-04-25T01:58:55;26.90;;;5.22;;
17953;SDS011;9102;53.548;9.926;2023-04-25T02:01:23;28.60;;;4.72;;
17953;SDS011;9102;53.548;9.926;2023-04-25T02:03:50;33.78;;;5.13;;
17953;SDS011;9102;53.548;9.926;2023-04-25T02:06:17;30.42;;;5.55;;
17953;SDS011;9102;53.548;9.926;2023-04-25T02:08:43;28.17;;;5.78;;
17953;SDS011;9102;53.548;9.926;2023-04-25T02:11:10;16.88;;;4.50;;
17953;SDS011;9102;53.548;9.926;2023-04-25T02:13:38;32.08;;;4.80;;
17953;SDS011;9102;53.548;9.926;2023-04-25T02:16:05;27.85;;;4.32;;
17953;SDS011;9102;53.548;9.926;2023-04-25T02:18:32;26.92;;;4.72;;
17953;SDS011;9102;53.548;9.926;2023-04-25T02:20:59;24.67;;;4.50;;
17953;SDS011;9102;53.548;9.926;2023-04-25T02:23:26;26.63;;;4.53;;
17953;SDS011;9102;53.548;9.926;2023-04-25T02:25:54;27.13;;;4.60;;
17953;SDS011;9102;53.548;9.926;2023-04-25T02:28:23;24.30;;;4.07;;
17953;SDS011;9102;53.548;9.926;2023-04-25T02:30:51;29.70;;;4.70;;
17953;SDS011;9102;53.548;9.926;2023-04-25T02:33:18;23.42;;;4.28;;
17953;SDS011;9102;53.548;9.926;2023-04-25T02:35:46;24.58;;;4.50;;
17953;SDS011;9102;53.548;9.926;2023-04-25T02:38:12;22.83;;;4.07;;
17953;SDS011;9102;53.548;9.926;2023-04-25T02:40:39;23.67;;;4.60;;
17953;SDS011;9102;53.548;9.926;2023-04-25T02:43:07;24.85;;;3.78;;
17953;SDS011;9102;53.548;9.926;2023-04-25T02:45:33;24.33;;;5.25;;
17953;SDS011;9102;53.548;9.926;2023-04-25T02:48:02;23.08;;;4.22;;
17953;SDS011;9102;53.548;9.926;2023-04-25T02:50:29;31.58;;;5.05;;
17953;SDS011;9102;53.548;9.926;2023-04-25T02:52:56;26.45;;;4.25;;
17953;SDS011;9102;53.548;9.926;2023-04-25T02:55:23;19.95;;;4.20;;
17953;SDS011;9102;53.548;9.926;2023-04-25T02:57:49;21.40;;;4.20;;
17953;SDS011;9102;53.548;9.926;2023-04-25T03:00:16;24.58;;;4.38;;
17953;SDS011;9102;53.548;9.926;2023-04-25T03:02:43;23.25;;;4.82;;
17953;SDS011;9102;53.548;9.926;2023-04-25T03:05:11;25.67;;;4.20;;
17953;SDS011;9102;53.548;9.926;2023-04-25T03:07:38;32.90;;;4.30;;
17953;SDS011;9102;53.548;9.926;2023-04-25T03:10:05;18.90;;;4.15;;
17953;SDS011;9102;53.548;9.926;2023-04-25T03:12:33;26.13;;;4.40;;
17953;SDS011;9102;53.548;9.926;2023-04-25T03:15:00;23.30;;;5.15;;
17953;SDS011;9102;53.548;9.926;2023-04-25T03:17:27;21.35;;;3.78;;
17953;SDS011;9102;53.548;9.926;2023-04-25T03:19:53;26.75;;;4.28;;
17953;SDS011;9102;53.548;9.926;2023-04-25T03:22:22;29.83;;;3.95;;
17953;SDS011;9102;53.548;9.926;2023-04-25T03:24:49;17.75;;;3.67;;
17953;SDS011;9102;53.548;9.926;2023-04-25T03:27:16;31.65;;;4.57;;
17953;SDS011;9102;53.548;9.926;2023-04-25T03:29:42;23.33;;;3.63;;
17953;SDS011;9102;53.548;9.926;2023-04-25T03:32:09;22.20;;;4.05;;
17953;SDS011;9102;53.548;9.926;2023-04-25T03:34:36;20.02;;;3.92;;
17953;SDS011;9102;53.548;9.926;2023-04-25T03:37:03;24.48;;;4.25;;
17953;SDS011;9102;53.548;9.926;2023-04-25T03:39:31;20.45;;;3.53;;
17953;SDS011;9102;53.548;9.926;2023-04-25T03:41:58;20.75;;;3.42;;
17953;SDS011;9102;53.548;9.926;2023-04-25T03:44:24;20.88;;;3.75;;
17953;SDS011;9102;53.548;9.926;2023-04-25T03:46:51;25.50;;;4.35;;
17953;SDS011;9102;53.548;9.926;2023-04-25T03:49:18;19.27;;;3.92;;
17953;SDS011;9102;53.548;9.926;2023-04-25T03:51:45;22.55;;;4.03;;
17953;SDS011;9102;53.548;9.926;2023-04-25T03:54:11;22.02;;;3.13;;
17953;SDS011;9102;53.548;9.926;2023-04-25T03:56:40;27.52;;;3.55;;
17953;SDS011;9102;53.548;9.926;2023-04-25T03:59:06;28.05;;;3.78;;
17953;SDS011;9102;53.548;9.926;2023-04-25T04:01:33;20.00;;;3.30;;
17953;SDS011;9102;53.548;9.926;2023-04-25T04:04:00;25.92;;;3.58;;
17953;SDS011;9102;53.548;9.926;2023-04-25T04:06:27;22.38;;;3.67;;
17953;SDS011;9102;53.548;9.926;2023-04-25T04:08:54;26.52;;;3.45;;
17953;SDS011;9102;53.548;9.926;2023-04-25T04:11:21;14.70;;;3.50;;
17953;SDS011;9102;53.548;9.926;2023-04-25T04:13:49;20.00;;;3.35;;
17953;SDS011;9102;53.548;9.926;2023-04-25T04:16:16;21.98;;;3.95;;
17953;SDS011;9102;53.548;9.926;2023-04-25T04:18:44;14.38;;;4.40;;
17953;SDS011;9102;53.548;9.926;2023-04-25T04:21:11;19.60;;;3.28;;
17953;SDS011;9102;53.548;9.926;2023-04-25T04:23:38;21.35;;;4.38;;
17953;SDS011;9102;53.548;9.926;2023-04-25T04:26:05;18.65;;;3.10;;
17953;SDS011;9102;53.548;9.926;2023-04-25T04:28:32;10.73;;;3.40;;
17953;SDS011;9102;53.548;9.926;2023-04-25T04:31:00;21.20;;;3.72;;
17953;SDS011;9102;53.548;9.926;2023-04-25T04:33:27;14.38;;;3.22;;
17953;SDS011;9102;53.548;9.926;2023-04-25T04:35:54;17.08;;;3.35;;
17953;SDS011;9102;53.548;9.926;2023-04-25T04:38:21;22.00;;;3.50;;
17953;SDS011;9102;53.548;9.926;2023-04-25T04:40:48;14.05;;;2.97;;
17953;SDS011;9102;53.548;9.926;2023-04-25T04:43:15;22.63;;;4.18;;
17953;SDS011;9102;53.548;9.926;2023-04-25T04:45:43;22.42;;;3.30;;
17953;SDS011;9102;53.548;9.926;2023-04-25T04:48:11;19.27;;;3.60;;
17953;SDS011;9102;53.548;9.926;2023-04-25T04:50:39;21.27;;;3.70;;
17953;SDS011;9102;53.548;9.926;2023-04-25T04:53:06;12.50;;;3.63;;
17953;SDS011;9102;53.548;9.926;2023-04-25T04:55:33;19.50;;;4.10;;
17953;SDS011;9102;53.548;9.926;2023-04-25T04:58:00;17.73;;;4.05;;
17953;SDS011;9102;53.548;9.926;2023-04-25T05:00:27;22.23;;;4.00;;
17953;SDS011;9102;53.548;9.926;2023-04-25T05:02:54;17.02;;;3.58;;
17953;SDS011;9102;53.548;9.926;2023-04-25T05:05:22;19.88;;;3.33;;
17953;SDS011;9102;53.548;9.926;2023-04-25T05:07:49;20.75;;;3.45;;
17953;SDS011;9102;53.548;9.926;2023-04-25T05:10:16;21.58;;;5.22;;
17953;SDS011;9102;53.548;9.926;2023-04-25T05:12:43;19.75;;;3.95;;
17953;SDS011;9102;53.548;9.926;2023-04-25T05:15:10;22.67;;;3.20;;
17953;SDS011;9102;53.548;9.926;2023-04-25T05:17:37;24.52;;;3.42;;
17953;SDS011;9102;53.548;9.926;2023-04-25T05:20:05;28.00;;;4.68;;
17953;SDS011;9102;53.548;9.926;2023-04-25T05:22:35;22.73;;;3.30;;
17953;SDS011;9102;53.548;9.926;2023-04-25T05:25:02;18.00;;;3.67;;
17953;SDS011;9102;53.548;9.926;2023-04-25T05:27:29;17.77;;;3.05;;
17953;SDS011;9102;53.548;9.926;2023-04-25T05:29:56;12.15;;;2.78;;
17953;SDS011;9102;53.548;9.926;2023-04-25T05:32:23;22.05;;;3.17;;
17953;SDS011;9102;53.548;9.926;2023-04-25T05:34:50;18.63;;;3.15;;
17953;SDS011;9102;53.548;9.926;2023-04-25T05:37:17;23.63;;;3.38;;
17953;SDS011;9102;53.548;9.926;2023-04-25T05:39:45;20.92;;;3.65;;
17953;SDS011;9102;53.548;9.926;2023-04-25T05:42:12;16.27;;;3.42;;
17953;SDS011;9102;53.548;9.926;2023-04-25T05:44:39;20.90;;;3.67;;
17953;SDS011;9102;53.548;9.926;2023-04-25T05:47:06;22.52;;;4.55;;
17953;SDS011;9102;53.548;9.926;2023-04-25T05:49:33;21.10;;;3.33;;
17953;SDS011;9102;53.548;9.926;2023-04-25T05:52:00;15.80;;;2.90;;
17953;SDS011;9102;53.548;9.926;2023-04-25T05:54:27;14.27;;;3.13;;
17953;SDS011;9102;53.548;9.926;2023-04-25T05:56:55;13.23;;;2.95;;
17953;SDS011;9102;53.548;9.926;2023-04-25T05:59:22;11.40;;;2.83;;
17953;SDS011;9102;53.548;9.926;2023-04-25T06:01:49;12.70;;;2.75;;
17953;SDS011;9102;53.548;9.926;2023-04-25T06:04:16;17.67;;;3.10;;
17953;SDS011;9102;53.548;9.926;2023-04-25T06:06:43;15.23;;;2.90;;
17953;SDS011;9102;53.548;9.926;2023-04-25T06:09:10;12.93;;;2.88;;
17953;SDS011;9102;53.548;9.926;2023-04-25T06:11:37;19.27;;;3.50;;
17953;SDS011;9102;53.548;9.926;2023-04-25T06:14:05;13.90;;;3.80;;
17953;SDS011;9102;53.548;9.926;2023-04-25T06:16:32;16.13;;;2.85;;
17953;SDS011;9102;53.548;9.926;2023-04-25T06:18:59;18.05;;;3.10;;
17953;SDS011;9102;53.548;9.926;2023-04-25T06:21:26;22.50;;;3.10;;
17953;SDS011;9102;53.548;9.926;2023-04-25T06:23:53;15.80;;;3.97;;
17953;SDS011;9102;53.548;9.926;2023-04-25T06:26:20;21.63;;;3.60;;
17953;SDS011;9102;53.548;9.926;2023-04-25T06:28:46;14.75;;;2.78;;
17953;SDS011;9102;53.548;9.926;2023-04-25T06:31:14;13.32;;;2.85;;
17953;SDS011;9102;53.548;9.926;2023-04-25T06:33:41;18.52;;;3.30;;
17953;SDS011;9102;53.548;9.926;2023-04-25T06:36:08;13.30;;;3.28;;
17953;SDS011;9102;53.548;9.926;2023-04-25T06:38:35;15.35;;;3.20;;
17953;SDS011;9102;53.548;9.926;2023-04-25T06:41:02;14.13;;;3.33;;
17953;SDS011;9102;53.548;9.926;2023-04-25T06:43:28;21.27;;;3.20;;
17953;SDS011;9102;53.548;9.926;2023-04-25T06:45:58;22.13;;;2.90;;
17953;SDS011;9102;53.548;9.926;2023-04-25T06:48:26;16.30;;;2.90;;
17953;SDS011;9102;53.548;9.926;2023-04-25T06:50:53;17.98;;;3.72;;
17953;SDS011;9102;53.548;9.926;2023-04-25T06:53:21;9.98;;;2.20;;
17953;SDS011;9102;53.548;9.926;2023-04-25T06:55:48;17.48;;;4.18;;
17953;SDS011;9102;53.548;9.926;2023-04-25T06:58:15;15.98;;;2.35;;
17953;SDS011;9102;53.548;9.926;2023-04-25T07:00:42;13.95;;;2.60;;
17953;SDS011;9102;53.548;9.926;2023-04-25T07:03:08;15.27;;;2.60;;
17953;SDS011;9102;53.548;9.926;2023-04-25T07:05:37;11.63;;;2.60;;
17953;SDS011;9102;53.548;9.926;2023-04-25T07:08:03;12.35;;;2.28;;
17953;SDS011;9102;53.548;9.926;2023-04-25T07:10:31;15.73;;;2.95;;
17953;SDS011;9102;53.548;9.926;2023-04-25T07:12:57;15.57;;;2.97;;
17953;SDS011;9102;53.548;9.926;2023-04-25T07:15:24;11.90;;;2.70;;
17953;SDS011;9102;53.548;9.926;2023-04-25T07:17:51;16.58;;;2.42;;
17953;SDS011;9102;53.548;9.926;2023-04-25T07:20:18;12.68;;;2.97;;
17953;SDS011;9102;53.548;9.926;2023-04-25T07:22:46;15.82;;;2.22;;
17953;SDS011;9102;53.548;9.926;2023-04-25T07:25:13;17.15;;;2.90;;
17953;SDS011;9102;53.548;9.926;2023-04-25T07:27:40;12.32;;;2.47;;
17953;SDS011;9102;53.548;9.926;2023-04-25T07:30:07;22.27;;;2.95;;
17953;SDS011;9102;53.548;9.926;2023-04-25T07:32:34;8.82;;;1.80;;
17953;SDS011;9102;53.548;9.926;2023-04-25T07:35:01;17.98;;;2.33;;
17953;SDS011;9102;53.548;9.926;2023-04-25T07:37:29;14.90;;;2.88;;
17953;SDS011;9102;53.548;9.926;2023-04-25T07:39:57;11.30;;;2.10;;
17953;SDS011;9102;53.548;9.926;2023-04-25T07:42:24;10.07;;;2.28;;
17953;SDS011;9102;53.548;9.926;2023-04-25T07:44:50;13.73;;;2.70;;
17953;SDS011;9102;53.548;9.926;2023-04-25T07:47:17;12.20;;;2.15;;
17953;SDS011;9102;53.548;9.926;2023-04-25T07:49:45;12.70;;;2.20;;
17953;SDS011;9102;53.548;9.926;2023-04-25T07:52:11;14.05;;;1.90;;
17953;SDS011;9102;53.548;9.926;2023-04-25T07:54:38;9.40;;;2.00;;
17953;SDS011;9102;53.548;9.926;2023-04-25T07:57:06;14.38;;;2.47;;
17953;SDS011;9102;53.548;9.926;2023-04-25T07:59:33;15.13;;;2.17;;
17953;SDS011;9102;53.548;9.926;2023-04-25T08:02:01;9.73;;;2.35;;
17953;SDS011;9102;53.548;9.926;2023-04-25T08:04:28;18.63;;;2.35;;
17953;SDS011;9102;53.548;9.926;2023-04-25T08:06:58;13.60;;;1.65;;
17953;SDS011;9102;53.548;9.926;2023-04-25T08:09:25;10.75;;;2.00;;
17953;SDS011;9102;53.548;9.926;2023-04-25T08:11:51;11.82;;;2.28;;
17953;SDS011;9102;53.548;9.926;2023-04-25T08:14:20;11.65;;;1.98;;
17953;SDS011;9102;53.548;9.926;2023-04-25T08:16:46;14.77;;;2.00;;
17953;SDS011;9102;53.548;9.926;2023-04-25T08:19:13;10.23;;;1.73;;
17953;SDS011;9102;53.548;9.926;2023-04-25T08:21:40;9.48;;;2.00;;
17953;SDS011;9102;53.548;9.926;2023-04-25T08:24:07;10.43;;;1.80;;
17953;SDS011;9102;53.548;9.926;2023-04-25T08:26:34;12.38;;;1.63;;
17953;SDS011;9102;53.548;9.926;2023-04-25T08:29:02;11.77;;;2.13;;
17953;SDS011;9102;53.548;9.926;2023-04-25T08:31:30;11.02;;;1.98;;
17953;SDS011;9102;53.548;9.926;2023-04-25T08:33:57;10.40;;;1.58;;
17953;SDS011;9102;53.548;9.926;2023-04-25T08:36:24;7.00;;;1.88;;
17953;SDS011;9102;53.548;9.926;2023-04-25T08:38:53;5.63;;;1.17;;
17953;SDS011;9102;53.548;9.926;2023-04-25T08:41:20;12.52;;;1.80;;
17953;SDS011;9102;53.548;9.926;2023-04-25T08:43:48;12.60;;;2.15;;
17953;SDS011;9102;53.548;9.926;2023-04-25T08:46:16;11.55;;;1.80;;
17953;SDS011;9102;53.548;9.926;2023-04-25T08:48:45;10.35;;;1.67;;
17953;SDS011;9102;53.548;9.926;2023-04-25T08:51:14;13.20;;;2.38;;
17953;SDS011;9102;53.548;9.926;2023-04-25T08:53:47;15.50;;;2.70;;
17953;SDS011;9102;53.548;9.926;2023-04-25T08:56:17;7.47;;;1.27;;
17953;SDS011;9102;53.548;9.926;2023-04-25T08:58:47;13.63;;;2.33;;
17953;SDS011;9102;53.548;9.926;2023-04-25T09:01:15;10.50;;;1.92;;
17953;SDS011;9102;53.548;9.926;2023-04-25T09:03:42;10.70;;;2.10;;
17953;SDS011;9102;53.548;9.926;2023-04-25T09:06:11;11.05;;;1.60;;
17953;SDS011;9102;53.548;9.926;2023-04-25T09:08:38;7.07;;;1.33;;
17953;SDS011;9102;53.548;9.926;2023-04-25T09:11:06;9.80;;;1.60;;
17953;SDS011;9102;53.548;9.926;2023-04-25T09:13:33;8.45;;;1.95;;
17953;SDS011;9102;53.548;9.926;2023-04-25T09:15:59;7.82;;;1.27;;
17953;SDS011;9102;53.548;9.926;2023-04-25T09:18:27;10.65;;;1.38;;
17953;SDS011;9102;53.548;9.926;2023-04-25T09:20:55;8.32;;;1.35;;
17953;SDS011;9102;53.548;9.926;2023-04-25T09:23:25;11.48;;;2.38;;
17953;SDS011;9102;53.548;9.926;2023-04-25T09:25:52;11.10;;;2.13;;
17953;SDS011;9102;53.548;9.926;2023-04-25T09:28:22;10.15;;;1.55;;
17953;SDS011;9102;53.548;9.926;2023-04-25T09:30:54;8.00;;;1.75;;
17953;SDS011;9102;53.548;9.926;2023-04-25T09:33:26;7.80;;;2.03;;
17953;SDS011;9102;53.548;9.926;2023-04-25T09:36:01;12.38;;;1.88;;
17953;SDS011;9102;53.548;9.926;2023-04-25T09:38:31;13.45;;;1.70;;
17953;SDS011;9102;53.548;9.926;2023-04-25T09:41:05;8.95;;;1.60;;
17953;SDS011;9102;53.548;9.926;2023-04-25T09:43:32;10.15;;;1.55;;
17953;SDS011;9102;53.548;9.926;2023-04-25T09:46:00;9.73;;;2.20;;
17953;SDS011;9102;53.548;9.926;2023-04-25T09:48:27;9.40;;;1.35;;
17953;SDS011;9102;53.548;9.926;2023-04-25T09:51:03;6.85;;;1.30;;
17953;SDS011;9102;53.548;9.926;2023-04-25T09:53:32;10.65;;;1.55;;
17953;SDS011;9102;53.548;9.926;2023-04-25T09:56:00;8.57;;;1.40;;
17953;SDS011;9102;53.548;9.926;2023-04-25T09:58:31;9.07;;;1.65;;
17953;SDS011;9102;53.548;9.926;2023-04-25T10:00:59;7.55;;;1.50;;
17953;SDS011;9102;53.548;9.926;2023-04-25T10:03:30;6.47;;;1.52;;
17953;SDS011;9102;53.548;9.926;2023-04-25T10:05:59;12.10;;;2.03;;
17953;SDS011;9102;53.548;9.926;2023-04-25T10:08:29;9.40;;;1.75;;
17953;SDS011;9102;53.548;9.926;2023-04-25T10:11:09;10.98;;;1.63;;
17953;SDS011;9102;53.548;9.926;2023-04-25T10:13:39;11.38;;;1.73;;
17953;SDS011;9102;53.548;9.926;2023-04-25T10:16:07;10.50;;;2.05;;
17953;SDS011;9102;53.548;9.926;2023-04-25T10:18:34;10.98;;;1.52;;
17953;SDS011;9102;53.548;9.926;2023-04-25T10:21:02;10.80;;;1.70;;
17953;SDS011;9102;53.548;9.926;2023-04-25T10:23:32;8.00;;;1.33;;
17953;SDS011;9102;53.548;9.926;2023-04-25T10:26:00;7.55;;;1.40;;
17953;SDS011;9102;53.548;9.926;2023-04-25T10:28:28;7.28;;;1.63;;
17953;SDS011;9102;53.548;9.926;2023-04-25T10:30:58;7.72;;;1.00;;
17953;SDS011;9102;53.548;9.926;2023-04-25T10:33:34;10.88;;;1.60;;
17953;SDS011;9102;53.548;9.926;2023-04-25T10:36:08;10.38;;;1.70;;
17953;SDS011;9102;53.548;9.926;2023-04-25T10:38:37;10.57;;;2.28;;
17953;SDS011;9102;53.548;9.926;2023-04-25T10:41:05;9.38;;;1.65;;
17953;SDS011;9102;53.548;9.926;2023-04-25T10:43:35;5.93;;;1.40;;
17953;SDS011;9102;53.548;9.926;2023-04-25T10:46:12;9.82;;;1.23;;
17953;SDS011;9102;53.548;9.926;2023-04-25T10:48:44;10.45;;;1.88;;
17953;SDS011;9102;53.548;9.926;2023-04-25T10:51:18;8.07;;;1.48;;
17953;SDS011;9102;53.548;9.926;2023-04-25T10:53:58;8.10;;;1.30;;
17953;SDS011;9102;53.548;9.926;2023-04-25T10:56:28;12.65;;;2.15;;
17953;SDS011;9102;53.548;9.926;2023-04-25T10:59:06;9.15;;;1.67;;
17953;SDS011;9102;53.548;9.926;2023-04-25T11:01:35;9.68;;;1.90;;
17953;SDS011;9102;53.548;9.926;2023-04-25T11:04:03;13.32;;;2.22;;
17953;SDS011;9102;53.548;9.926;2023-04-25T11:06:32;7.65;;;1.80;;
17953;SDS011;9102;53.548;9.926;2023-04-25T11:09:10;10.63;;;2.17;;
17953;SDS011;9102;53.548;9.926;2023-04-25T11:11:39;15.38;;;2.25;;
17953;SDS011;9102;53.548;9.926;2023-04-25T11:14:05;4.68;;;1.35;;
17953;SDS011;9102;53.548;9.926;2023-04-25T11:16:33;10.57;;;1.75;;
17953;SDS011;9102;53.548;9.926;2023-04-25T11:19:01;6.75;;;1.40;;
17953;SDS011;9102;53.548;9.926;2023-04-25T11:21:28;10.65;;;1.83;;
17953;SDS011;9102;53.548;9.926;2023-04-25T11:23:57;8.60;;;1.30;;
17953;SDS011;9102;53.548;9.926;2023-04-25T11:26:27;9.70;;;1.40;;
17953;SDS011;9102;53.548;9.926;2023-04-25T11:28:56;6.85;;;1.45;;
17953;SDS011;9102;53.548;9.926;2023-04-25T11:31:25;5.53;;;1.45;;
17953;SDS011;9102;53.548;9.926;2023-04-25T11:33:56;7.30;;;1.40;;
17953;SDS011;9102;53.548;9.926;2023-04-25T11:36:23;3.45;;;0.88;;
17953;SDS011;9102;53.548;9.926;2023-04-25T11:38:50;3.80;;;0.82;;
17953;SDS011;9102;53.548;9.926;2023-04-25T11:41:18;7.10;;;0.95;;
17953;SDS011;9102;53.548;9.926;2023-04-25T11:43:46;3.78;;;1.05;;
17953;SDS011;9102;53.548;9.926;2023-04-25T11:46:22;4.97;;;1.10;;
17953;SDS011;9102;53.548;9.926;2023-04-25T11:48:50;7.85;;;1.30;;
17953;SDS011;9102;53.548;9.926;2023-04-25T11:51:17;7.75;;;2.28;;
17953;SDS011;9102;53.548;9.926;2023-04-25T11:53:44;8.75;;;1.13;;
17953;SDS011;9102;53.548;9.926;2023-04-25T11:56:11;3.25;;;1.20;;
17953;SDS011;9102;53.548;9.926;2023-04-25T11:58:55;6.13;;;1.23;;
17953;SDS011;9102;53.548;9.926;2023-04-25T12:01:26;7.80;;;2.25;;
17953;SDS011;9102;53.548;9.926;2023-04-25T12:03:57;8.18;;;1.40;;
17953;SDS011;9102;53.548;9.926;2023-04-25T12:06:27;5.30;;;1.10;;
17953;SDS011;9102;53.548;9.926;2023-04-25T12:09:01;11.27;;;1.92;;
17953;SDS011;9102;53.548;9.926;2023-04-25T12:11:30;12.07;;;1.70;;
17953;SDS011;9102;53.548;9.926;2023-04-25T12:14:03;9.30;;;1.58;;
17953;SDS011;9102;53.548;9.926;2023-04-25T12:16:39;4.20;;;0.82;;
17953;SDS011;9102;53.548;9.926;2023-04-25T12:19:07;7.10;;;2.10;;
17953;SDS011;9102;53.548;9.926;2023-04-25T12:21:34;6.88;;;1.40;;
17953;SDS011;9102;53.548;9.926;2023-04-25T12:24:11;8.13;;;0.95;;
17953;SDS011;9102;53.548;9.926;2023-04-25T12:26:45;7.82;;;1.00;;
17953;SDS011;9102;53.548;9.926;2023-04-25T12:29:19;9.43;;;1.23;;
17953;SDS011;9102;53.548;9.926;2023-04-25T12:31:46;5.97;;;0.95;;
17953;SDS011;9102;53.548;9.926;2023-04-25T12:34:13;4.45;;;0.73;;
17953;SDS011;9102;53.548;9.926;2023-04-25T12:36:40;9.63;;;1.17;;
17953;SDS011;9102;53.548;9.926;2023-04-25T12:39:07;7.15;;;1.60;;
17953;SDS011;9102;53.548;9.926;2023-04-25T12:41:35;8.98;;;1.17;;
17953;SDS011;9102;53.548;9.926;2023-04-25T12:44:02;8.38;;;1.08;;
17953;SDS011;9102;53.548;9.926;2023-04-25T12:46:31;5.13;;;1.20;;
17953;SDS011;9102;53.548;9.926;2023-04-25T12:48:57;7.15;;;1.30;;
17953;SDS011;9102;53.548;9.926;2023-04-25T12:51:25;8.38;;;1.38;;
17953;SDS011;9102;53.548;9.926;2023-04-25T12:53:53;5.97;;;1.77;;
17953;SDS011;9102;53.548;9.926;2023-04-25T12:56:19;7.65;;;1.50;;
17953;SDS011;9102;53.548;9.926;2023-04-25T12:58:46;11.07;;;1.65;;
17953;SDS011;9102;53.548;9.926;2023-04-25T13:01:14;10.25;;;1.55;;
17953;SDS011;9102;53.548;9.926;2023-04-25T13:03:42;6.97;;;1.70;;
17953;SDS011;9102;53.548;9.926;2023-04-25T13:06:08;9.40;;;1.92;;
17953;SDS011;9102;53.548;9.926;2023-04-25T13:08:35;8.63;;;1.42;;
17953;SDS011;9102;53.548;9.926;2023-04-25T13:11:03;9.77;;;1.50;;
17953;SDS011;9102;53.548;9.926;2023-04-25T13:13:30;9.55;;;1.33;;
17953;SDS011;9102;53.548;9.926;2023-04-25T13:15:59;11.13;;;1.58;;
17953;SDS011;9102;53.548;9.926;2023-04-25T13:18:26;8.00;;;1.48;;
17953;SDS011;9102;53.548;9.926;2023-04-25T13:20:55;5.85;;;1.92;;
17953;SDS011;9102;53.548;9.926;2023-04-25T13:23:22;11.00;;;1.52;;
17953;SDS011;9102;53.548;9.926;2023-04-25T13:25:51;8.00;;;1.95;;
17953;SDS011;9102;53.548;9.926;2023-04-25T13:28:18;9.38;;;1.90;;
17953;SDS011;9102;53.548;9.926;2023-04-25T13:30:45;6.75;;;1.65;;
17953;SDS011;9102;53.548;9.926;2023-04-25T13:33:12;7.82;;;1.30;;
17953;SDS011;9102;53.548;9.926;2023-04-25T13:35:40;13.00;;;1.90;;
17953;SDS011;9102;53.548;9.926;2023-04-25T13:38:08;9.93;;;1.70;;
17953;SDS011;9102;53.548;9.926;2023-04-25T13:40:35;7.10;;;1.52;;
17953;SDS011;9102;53.548;9.926;2023-04-25T13:43:02;9.05;;;1.65;;
17953;SDS011;9102;53.548;9.926;2023-04-25T13:45:29;12.68;;;1.90;;
17953;SDS011;9102;53.548;9.926;2023-04-25T13:47:56;5.93;;;1.67;;
17953;SDS011;9102;53.548;9.926;2023-04-25T13:50:23;5.13;;;1.02;;
17953;SDS011;9102;53.548;9.926;2023-04-25T13:52:50;4.28;;;1.25;;
17953;SDS011;9102;53.548;9.926;2023-04-25T13:55:18;6.15;;;1.40;;
17953;SDS011;9102;53.548;9.926;2023-04-25T13:57:45;6.65;;;2.28;;
17953;SDS011;9102;53.548;9.926;2023-04-25T14:00:12;10.02;;;1.98;;
17953;SDS011;9102;53.548;9.926;2023-04-25T14:02:39;11.77;;;3.35;;
17953;SDS011;9102;53.548;9.926;2023-04-25T14:05:07;6.25;;;1.52;;
17953;SDS011;9102;53.548;9.926;2023-04-25T14:07:34;11.57;;;1.70;;
17953;SDS011;9102;53.548;9.926;2023-04-25T14:10:01;12.82;;;2.20;;
17953;SDS011;9102;53.548;9.926;2023-04-25T14:12:30;3.63;;;1.65;;
17953;SDS011;9102;53.548;9.926;2023-04-25T14:14:58;8.45;;;1.88;;
17953;SDS011;9102;53.548;9.926;2023-04-25T14:17:25;8.68;;;2.10;;
17953;SDS011;9102;53.548;9.926;2023-04-25T14:19:51;17.83;;;2.15;;
17953;SDS011;9102;53.548;9.926;2023-04-25T14:22:18;13.90;;;2.28;;
17953;SDS011;9102;53.548;9.926;2023-04-25T14:24:45;11.40;;;1.70;;
17953;SDS011;9102;53.548;9.926;2023-04-25T14:27:12;18.38;;;2.85;;
17953;SDS011;9102;53.548;9.926;2023-04-25T14:29:40;12.90;;;2.13;;
17953;SDS011;9102;53.548;9.926;2023-04-25T14:32:07;12.55;;;1.90;;
17953;SDS011;9102;53.548;9.926;2023-04-25T14:34:35;8.13;;;2.22;;
17953;SDS011;9102;53.548;9.926;2023-04-25T14:37:02;8.38;;;1.75;;
17953;SDS011;9102;53.548;9.926;2023-04-25T14:39:28;11.98;;;1.90;;
17953;SDS011;9102;53.548;9.926;2023-04-25T14:41:55;15.00;;;2.22;;
17953;SDS011;9102;53.548;9.926;2023-04-25T14:44:22;7.82;;;1.70;;
17953;SDS011;9102;53.548;9.926;2023-04-25T14:46:51;10.18;;;1.75;;
17953;SDS011;9102;53.548;9.926;2023-04-25T14:49:18;7.63;;;1.20;;
17953;SDS011;9102;53.548;9.926;2023-04-25T14:51:45;5.75;;;1.35;;
17953;SDS011;9102;53.548;9.926;2023-04-25T14:54:11;7.70;;;1.88;;